createdAt,value
2019-03-06T00:02:00.170Z,100246.00
2019-03-06T00:04:30.809Z,100257.00
2019-03-06T00:07:01.373Z,100256.00
2019-03-06T00:09:31.924Z,100250.00
2019-03-06T00:12:02.329Z,100239.00
2019-03-06T00:14:33.057Z,100234.00
2019-03-06T00:17:03.499Z,100237.00
2019-03-06T00:19:33.795Z,100231.00
2019-03-06T00:22:05.677Z,100241.00
2019-03-06T00:24:36.216Z,100232.00
2019-03-06T00:27:07.466Z,100227.00
2019-03-06T00:29:38.423Z,100238.00
2019-03-06T00:32:10.920Z,100242.00
2019-03-06T00:34:41.512Z,100236.00
2019-03-06T00:37:11.859Z,100238.00
2019-03-06T00:39:49.753Z,100229.00
2019-03-06T00:42:20.579Z,100221.00
2019-03-06T00:44:50.921Z,100232.00
2019-03-06T00:47:22.533Z,100225.00
2019-03-06T00:49:53.165Z,100222.00
2019-03-06T00:52:29.582Z,100224.00
2019-03-06T00:55:00.080Z,100226.00
2019-03-06T00:57:30.933Z,100230.00
2019-03-06T01:00:01.241Z,100229.00
2019-03-06T01:02:32.055Z,100235.00
2019-03-06T01:05:02.425Z,100243.00
2019-03-06T01:07:32.875Z,100237.00
2019-03-06T01:10:03.303Z,100232.00
2019-03-06T01:12:34.201Z,100242.00
2019-03-06T01:15:04.479Z,100240.00
2019-03-06T01:17:35.177Z,100252.00
2019-03-06T01:20:06.632Z,100239.00
2019-03-06T01:22:37.085Z,100248.00
2019-03-06T01:25:09.099Z,100251.00
2019-03-06T01:27:41.613Z,100247.00
2019-03-06T01:30:14.409Z,100248.00
2019-03-06T01:32:46.529Z,100247.00
2019-03-06T01:35:31.497Z,100240.00
2019-03-06T01:38:20.805Z,100236.00
2019-03-06T01:41:08.433Z,100234.00
2019-03-06T01:43:51.608Z,100223.00
2019-03-06T01:46:24.957Z,100210.00
2019-03-06T01:48:55.631Z,100215.00
2019-03-06T01:51:26.167Z,100221.00
2019-03-06T01:53:57.859Z,100216.00
2019-03-06T01:56:28.189Z,100218.00
2019-03-06T01:58:58.776Z,100222.00
2019-03-06T02:01:29.393Z,100207.00
2019-03-06T02:04:01.190Z,100225.00
2019-03-06T02:06:32.337Z,100232.00
2019-03-06T02:09:03.243Z,100232.00
2019-03-06T02:11:33.691Z,100230.00
2019-03-06T02:14:04.493Z,100219.00
2019-03-06T02:16:34.961Z,100211.00
2019-03-06T02:19:05.972Z,100210.00
2019-03-06T02:21:36.654Z,100206.00
2019-03-06T02:24:07.281Z,100205.00
2019-03-06T02:26:37.815Z,100213.00
2019-03-06T02:29:08.355Z,100209.00
2019-03-06T02:31:40.807Z,100209.00
2019-03-06T02:34:11.337Z,100212.00
2019-03-06T02:36:41.742Z,100212.00
2019-03-06T02:39:12.225Z,100219.00
2019-03-06T02:41:42.954Z,100226.00
2019-03-06T02:44:16.482Z,100212.00
2019-03-06T02:46:47.075Z,100211.00
2019-03-06T02:49:17.718Z,100199.00
2019-03-06T02:51:48.305Z,100202.00
2019-03-06T02:54:20.504Z,100183.00
2019-03-06T02:56:51.078Z,100202.00
2019-03-06T02:59:50.566Z,100197.00
2019-03-06T03:02:38.381Z,100192.00
2019-03-06T03:05:16.058Z,100182.00
2019-03-06T03:07:46.502Z,100195.00
2019-03-06T03:10:18.256Z,100180.00
2019-03-06T03:12:48.766Z,100182.00
2019-03-06T03:15:20.264Z,100169.00
2019-03-06T03:17:50.726Z,100175.00
2019-03-06T03:20:21.415Z,100164.00
2019-03-06T03:22:51.786Z,100161.00
2019-03-06T03:25:24.564Z,100158.00
2019-03-06T03:27:55.753Z,100156.00
2019-03-06T03:30:26.091Z,100158.00
2019-03-06T03:32:56.487Z,100149.00
2019-03-06T03:35:26.860Z,100146.00
2019-03-06T03:37:57.731Z,100145.00
2019-03-06T03:40:28.316Z,100148.00
2019-03-06T03:43:00.108Z,100141.00
2019-03-06T03:45:31.607Z,100145.00
2019-03-06T03:48:01.969Z,100130.00
2019-03-06T03:50:32.412Z,100132.00
2019-03-06T03:53:02.768Z,100140.00
2019-03-06T03:55:33.329Z,100139.00
2019-03-06T03:58:04.123Z,100145.00
2019-03-06T04:00:34.649Z,100140.00
2019-03-06T04:03:05.633Z,100144.00
2019-03-06T04:05:36.000Z,100150.00
2019-03-06T04:08:06.630Z,100146.00
2019-03-06T04:10:37.367Z,100153.00
2019-03-06T04:13:10.450Z,100137.00
2019-03-06T04:15:40.958Z,100130.00
2019-03-06T04:18:11.840Z,100118.00
2019-03-06T04:20:42.706Z,100121.00
2019-03-06T04:23:13.507Z,100124.00
2019-03-06T04:25:44.263Z,100125.00
2019-03-06T04:28:14.804Z,100116.00
2019-03-06T04:30:45.456Z,100115.00
2019-03-06T04:33:16.032Z,100106.00
2019-03-06T04:35:46.959Z,100108.00
2019-03-06T04:38:17.424Z,100113.00
2019-03-06T04:40:48.010Z,100103.00
2019-03-06T04:43:18.647Z,100108.00
2019-03-06T04:45:49.172Z,100099.00
2019-03-06T04:48:19.693Z,100098.00
2019-03-06T04:50:50.182Z,100091.00
2019-03-06T04:53:20.755Z,100096.00
2019-03-06T04:55:51.293Z,100086.00
2019-03-06T04:58:23.879Z,100090.00
2019-03-06T05:00:54.336Z,100091.00
2019-03-06T05:03:24.764Z,100085.00
2019-03-06T05:05:55.334Z,100086.00
2019-03-06T05:08:28.539Z,100092.00
2019-03-06T05:10:59.712Z,100091.00
2019-03-06T05:13:30.259Z,100088.00
2019-03-06T05:16:00.913Z,100091.00
2019-03-06T05:18:44.972Z,100083.00
2019-03-06T05:21:15.696Z,100094.00
2019-03-06T05:23:45.953Z,100081.00
2019-03-06T05:26:16.451Z,100090.00
2019-03-06T05:28:46.683Z,100087.00
2019-03-06T05:31:16.838Z,100083.00
2019-03-06T05:33:47.020Z,100092.00
2019-03-06T05:36:46.913Z,100091.00
2019-03-06T05:39:17.171Z,100080.00
2019-03-06T05:41:47.562Z,100074.00
2019-03-06T05:44:19.404Z,100078.00
2019-03-06T05:46:50.763Z,100075.00
2019-03-06T05:49:21.240Z,100074.00
2019-03-06T05:51:52.947Z,100055.00
2019-03-06T05:54:23.360Z,100054.00
2019-03-06T05:56:54.777Z,100048.00
2019-03-06T05:59:25.103Z,100040.00
2019-03-06T06:01:58.588Z,100036.00
2019-03-06T06:04:28.995Z,100034.00
2019-03-06T06:07:00.428Z,100030.00
2019-03-06T06:09:31.222Z,100028.00
2019-03-06T06:12:02.086Z,100032.00
2019-03-06T06:14:32.961Z,100038.00
2019-03-06T06:17:06.527Z,100039.00
2019-03-06T06:19:37.404Z,100031.00
2019-03-06T06:22:27.461Z,100033.00
2019-03-06T06:24:58.170Z,100028.00
2019-03-06T06:27:29.919Z,100033.00
2019-03-06T06:30:01.281Z,100039.00
2019-03-06T06:32:32.967Z,100030.00
2019-03-06T06:35:04.215Z,100024.00
2019-03-06T06:37:35.881Z,100019.00
2019-03-06T06:40:06.925Z,100021.00
2019-03-06T06:42:37.796Z,100014.00
2019-03-06T06:45:10.362Z,100005.00
2019-03-06T06:48:24.921Z,99999.00
2019-03-06T06:51:12.865Z,99993.00
2019-03-06T06:54:33.483Z,99975.00
2019-03-06T06:57:26.917Z,99996.00
2019-03-06T07:00:15.191Z,99986.00
2019-03-06T07:03:19.317Z,99978.00
2019-03-06T07:05:59.637Z,99979.00
2019-03-06T07:08:56.139Z,99978.00
2019-03-06T07:11:48.564Z,99967.00
2019-03-06T07:14:37.251Z,99969.00
2019-03-06T07:17:15.591Z,99967.00
2019-03-06T07:19:59.684Z,99968.00
2019-03-06T07:22:51.045Z,99950.00
2019-03-06T07:25:48.611Z,99953.00
2019-03-06T07:28:53.881Z,99939.00
2019-03-06T07:31:37.946Z,99947.00
2019-03-06T07:34:26.624Z,99939.00
2019-03-06T07:37:02.301Z,99935.00
2019-03-06T07:40:01.617Z,99931.00
2019-03-06T07:42:54.921Z,99924.00
2019-03-06T07:46:05.725Z,99922.00
2019-03-06T07:49:13.017Z,99924.00
2019-03-06T07:52:11.622Z,99920.00
2019-03-06T07:55:01.187Z,99921.00
2019-03-06T07:57:41.977Z,99906.00
2019-03-06T08:00:16.783Z,99912.00
2019-03-06T08:03:18.537Z,99917.00
2019-03-06T08:05:49.585Z,99924.00
2019-03-06T08:08:20.891Z,99920.00
2019-03-06T08:10:52.539Z,99921.00
2019-03-06T08:13:31.921Z,99931.00
2019-03-06T08:16:14.942Z,99940.00
2019-03-06T08:19:17.207Z,99923.00
2019-03-06T08:21:56.366Z,99924.00
2019-03-06T08:24:58.851Z,99928.00
2019-03-06T08:27:29.713Z,99927.00
2019-03-06T08:30:00.591Z,99917.00
2019-03-06T08:32:32.912Z,99926.00
2019-03-06T08:35:03.702Z,99919.00
2019-03-06T08:37:35.109Z,99920.00
2019-03-06T08:40:06.896Z,99906.00
2019-03-06T08:42:37.795Z,99899.00
2019-03-06T08:45:10.015Z,99900.00
2019-03-06T08:48:05.393Z,99911.00
2019-03-06T08:51:07.327Z,99910.00
2019-03-06T08:54:01.053Z,99911.00
2019-03-06T08:56:46.005Z,99895.00
2019-03-06T08:59:34.531Z,99901.00
2019-03-06T09:02:16.953Z,99888.00
2019-03-06T09:05:06.765Z,99888.00
2019-03-06T09:08:14.967Z,99890.00
2019-03-06T09:11:16.857Z,99883.00
2019-03-06T09:14:05.221Z,99870.00
2019-03-06T09:16:55.022Z,99866.00
2019-03-06T09:19:45.865Z,99870.00
2019-03-06T09:22:37.043Z,99862.00
2019-03-06T09:25:36.455Z,99845.00
2019-03-06T09:28:20.599Z,99847.00
2019-03-06T09:31:00.727Z,99852.00
2019-03-06T09:33:48.063Z,99854.00
2019-03-06T09:36:36.607Z,99846.00
2019-03-06T09:39:32.700Z,99844.00
2019-03-06T09:42:20.379Z,99844.00
2019-03-06T09:44:59.856Z,99828.00
2019-03-06T09:47:46.959Z,99809.00
2019-03-06T09:50:31.542Z,99805.00
2019-03-06T09:53:19.476Z,99824.00
2019-03-06T09:56:14.632Z,99806.00
2019-03-06T09:59:10.042Z,99799.00
2019-03-06T10:02:06.798Z,99788.00
2019-03-06T10:04:40.562Z,99780.00
2019-03-06T10:07:33.853Z,99774.00
2019-03-06T10:10:22.941Z,99776.00
2019-03-06T10:13:00.314Z,99752.00
2019-03-06T10:15:45.622Z,99754.00
2019-03-06T10:18:38.195Z,99751.00
2019-03-06T10:21:09.313Z,99748.00
2019-03-06T10:23:40.442Z,99743.00
2019-03-06T10:26:11.881Z,99754.00
2019-03-06T10:28:42.801Z,99753.00
2019-03-06T10:31:14.166Z,99753.00
2019-03-06T10:33:45.108Z,99756.00
2019-03-06T10:36:16.826Z,99754.00
2019-03-06T10:38:47.864Z,99749.00
2019-03-06T10:41:18.906Z,99743.00
2019-03-06T10:43:53.175Z,99737.00
2019-03-06T10:46:24.308Z,99731.00
2019-03-06T10:48:55.280Z,99718.00
2019-03-06T10:51:26.064Z,99711.00
2019-03-06T10:53:57.022Z,99726.00
2019-03-06T10:56:28.495Z,99713.00
2019-03-06T10:58:59.842Z,99715.00
2019-03-06T11:01:30.730Z,99717.00
2019-03-06T11:04:26.536Z,99700.00
2019-03-06T11:06:57.946Z,99709.00
2019-03-06T11:09:29.406Z,99689.00
2019-03-06T11:12:05.109Z,99702.00
2019-03-06T11:14:41.332Z,99686.00
2019-03-06T11:17:12.442Z,99674.00
2019-03-06T11:19:43.420Z,99675.00
2019-03-06T11:22:14.864Z,99660.00
2019-03-06T11:24:45.892Z,99659.00
2019-03-06T11:27:16.959Z,99666.00
2019-03-06T11:29:47.892Z,99655.00
2019-03-06T11:32:20.444Z,99650.00
2019-03-06T11:34:51.448Z,99639.00
2019-03-06T11:37:22.398Z,99631.00
2019-03-06T11:39:54.475Z,99635.00
2019-03-06T11:42:25.494Z,99629.00
2019-03-06T11:44:56.584Z,99620.00
2019-03-06T11:47:27.938Z,99629.00
2019-03-06T11:49:58.891Z,99613.00
2019-03-06T11:52:29.730Z,99603.00
2019-03-06T11:55:06.149Z,99601.00
2019-03-06T11:57:33.413Z,99582.00
2019-03-06T12:00:05.370Z,99584.00
2019-03-06T12:02:36.346Z,99586.00
2019-03-06T12:05:07.724Z,99567.00
2019-03-06T12:07:38.622Z,99564.00
2019-03-06T12:10:10.318Z,99549.00
2019-03-06T12:12:41.527Z,99551.00
2019-03-06T12:15:13.044Z,99542.00
2019-03-06T12:17:47.392Z,99536.00
2019-03-06T12:20:17.956Z,99531.00
2019-03-06T12:22:49.437Z,99527.00
2019-03-06T12:25:22.370Z,99518.00
2019-03-06T12:27:53.114Z,99511.00
2019-03-06T12:30:24.191Z,99502.00
2019-03-06T12:32:54.848Z,99497.00
2019-03-06T12:35:26.668Z,99489.00
2019-03-06T12:37:59.220Z,99489.00
2019-03-06T12:40:32.226Z,99479.00
2019-03-06T12:43:06.914Z,99473.00
2019-03-06T12:45:37.851Z,99482.00
2019-03-06T12:48:10.550Z,99479.00
2019-03-06T12:50:41.484Z,99456.00
2019-03-06T12:53:12.959Z,99451.00
2019-03-06T12:55:44.321Z,99452.00
2019-03-06T12:58:15.611Z,99435.00
2019-03-06T13:00:46.738Z,99431.00
2019-03-06T13:03:18.344Z,99431.00
2019-03-06T13:05:49.312Z,99425.00
2019-03-06T13:08:20.155Z,99410.00
2019-03-06T13:10:50.760Z,99413.00
2019-03-06T13:13:21.885Z,99400.00
2019-03-06T13:15:53.168Z,99396.00
2019-03-06T13:18:24.440Z,99389.00
2019-03-06T13:20:54.895Z,99384.00
2019-03-06T13:23:25.582Z,99395.00
2019-03-06T13:25:57.063Z,99388.00
2019-03-06T13:28:27.994Z,99375.00
2019-03-06T13:30:58.947Z,99375.00
2019-03-06T13:33:44.029Z,99378.00
2019-03-06T13:36:15.076Z,99351.00
2019-03-06T13:38:54.476Z,99352.00
2019-03-06T13:41:18.092Z,99351.00
2019-03-06T13:43:49.034Z,99359.00
2019-03-06T13:46:20.202Z,99351.00
2019-03-06T13:48:53.825Z,99344.00
2019-03-06T13:51:24.599Z,99326.00
2019-03-06T13:53:56.675Z,99326.00
2019-03-06T13:56:27.798Z,99312.00
2019-03-06T13:58:58.332Z,99320.00
2019-03-06T14:01:29.664Z,99309.00
2019-03-06T14:04:00.187Z,99308.00
2019-03-06T14:06:30.958Z,99321.00
2019-03-06T14:09:01.735Z,99306.00
2019-03-06T14:11:32.885Z,99307.00
2019-03-06T14:14:07.469Z,99294.00
2019-03-06T14:16:38.723Z,99294.00
2019-03-06T14:19:14.569Z,99309.00
2019-03-06T14:21:45.689Z,99294.00
2019-03-06T14:24:16.634Z,99297.00
2019-03-06T14:26:47.393Z,99281.00
2019-03-06T14:29:18.021Z,99264.00
2019-03-06T14:31:49.542Z,99262.00
2019-03-06T14:34:20.551Z,99250.00
2019-03-06T14:36:51.493Z,99239.00
2019-03-06T14:39:32.679Z,99250.00
2019-03-06T14:42:03.686Z,99247.00
2019-03-06T14:44:36.389Z,99245.00
2019-03-06T14:47:10.204Z,99240.00
2019-03-06T14:49:44.638Z,99231.00
2019-03-06T14:52:15.447Z,99229.00
2019-03-06T14:54:46.411Z,99234.00
2019-03-06T14:57:17.270Z,99232.00
2019-03-06T14:59:48.115Z,99226.00
2019-03-06T15:02:20.202Z,99214.00
2019-03-06T15:04:52.358Z,99220.00
2019-03-06T15:07:22.989Z,99217.00
2019-03-06T15:09:54.360Z,99223.00
2019-03-06T15:12:25.392Z,99205.00
2019-03-06T15:14:56.071Z,99213.00
2019-03-06T15:17:26.749Z,99208.00
2019-03-06T15:19:57.948Z,99213.00
2019-03-06T15:22:38.196Z,99202.00
2019-03-06T15:25:02.100Z,99204.00
2019-03-06T15:27:33.208Z,99208.00
2019-03-06T15:30:05.448Z,99209.00
2019-03-06T15:32:36.473Z,99188.00
2019-03-06T15:35:07.961Z,99192.00
2019-03-06T15:37:39.107Z,99182.00
2019-03-06T15:40:13.225Z,99177.00
2019-03-06T15:42:44.305Z,99168.00
2019-03-06T15:45:16.984Z,99162.00
2019-03-06T15:47:48.069Z,99167.00
2019-03-06T15:50:19.848Z,99161.00
2019-03-06T15:52:50.629Z,99160.00
2019-03-06T15:55:24.265Z,99153.00
2019-03-06T15:57:55.869Z,99151.00
2019-03-06T16:00:45.490Z,99154.00
2019-03-06T16:03:09.387Z,99163.00
2019-03-06T16:05:42.211Z,99138.00
2019-03-06T16:08:13.467Z,99151.00
2019-03-06T16:10:44.504Z,99152.00
2019-03-06T16:13:15.400Z,99148.00
2019-03-06T16:15:46.478Z,99149.00
2019-03-06T16:18:17.528Z,99138.00
2019-03-06T16:20:48.758Z,99142.00
2019-03-06T16:23:20.157Z,99146.00
2019-03-06T16:25:51.036Z,99136.00
2019-03-06T16:28:21.858Z,99133.00
2019-03-06T16:30:52.846Z,99125.00
2019-03-06T16:33:26.420Z,99119.00
2019-03-06T16:35:57.572Z,99121.00
2019-03-06T16:38:28.094Z,99111.00
2019-03-06T16:40:58.772Z,99108.00
2019-03-06T16:43:29.531Z,99108.00
2019-03-06T16:45:59.924Z,99106.00
2019-03-06T16:48:30.676Z,99102.00
2019-03-06T16:51:01.054Z,99103.00
2019-03-06T16:53:36.130Z,99101.00
2019-03-06T16:56:06.537Z,99115.00
2019-03-06T16:58:36.981Z,99119.00
2019-03-06T17:01:11.031Z,99119.00
2019-03-06T17:03:42.926Z,99113.00
2019-03-06T17:06:13.146Z,99128.00
2019-03-06T17:08:43.428Z,99129.00
2019-03-06T17:11:16.474Z,99122.00
2019-03-06T17:13:46.944Z,99121.00
2019-03-06T17:16:19.551Z,99127.00
2019-03-06T17:18:51.800Z,99112.00
2019-03-06T17:21:22.135Z,99115.00
2019-03-06T17:23:52.386Z,99119.00
2019-03-06T17:26:23.428Z,99109.00
2019-03-06T17:28:53.700Z,99113.00
2019-03-06T17:31:24.056Z,99115.00
2019-03-06T17:33:55.710Z,99115.00
2019-03-06T17:36:26.406Z,99124.00
2019-03-06T17:38:58.142Z,99127.00
2019-03-06T17:41:28.870Z,99132.00
2019-03-06T17:44:00.770Z,99131.00
2019-03-06T17:46:31.489Z,99127.00
2019-03-06T17:49:01.898Z,99130.00
2019-03-06T17:51:33.579Z,99135.00
2019-03-06T17:54:07.133Z,99130.00
2019-03-06T17:56:38.674Z,99131.00
2019-03-06T17:59:11.567Z,99136.00
2019-03-06T18:01:43.580Z,99122.00
2019-03-06T18:04:19.107Z,99104.00
2019-03-06T18:06:52.632Z,99105.00
2019-03-06T18:09:28.298Z,99093.00
2019-03-06T18:11:58.921Z,99096.00
2019-03-06T18:14:29.325Z,99087.00
2019-03-06T18:16:59.633Z,99085.00
2019-03-06T18:19:30.245Z,99084.00
2019-03-06T18:22:00.716Z,99087.00
2019-03-06T18:24:31.103Z,99080.00
2019-03-06T18:27:01.906Z,99074.00
2019-03-06T18:29:32.495Z,99087.00
2019-03-06T18:32:03.469Z,99073.00
2019-03-06T18:34:34.366Z,99065.00
2019-03-06T18:37:05.118Z,99063.00
2019-03-06T18:39:36.124Z,99066.00
2019-03-06T18:42:06.675Z,99053.00
2019-03-06T18:44:37.398Z,99049.00
2019-03-06T18:47:08.002Z,99047.00
2019-03-06T18:49:38.472Z,99042.00
2019-03-06T18:52:09.012Z,99041.00
2019-03-06T18:54:39.839Z,99043.00
2019-03-06T18:57:10.356Z,99030.00
2019-03-06T18:59:40.940Z,99040.00
2019-03-06T19:02:11.566Z,99023.00
2019-03-06T19:04:42.164Z,99022.00
2019-03-06T19:07:12.786Z,99025.00
2019-03-06T19:09:45.674Z,99016.00
2019-03-06T19:12:15.462Z,99017.00
2019-03-06T19:14:45.934Z,99013.00
2019-03-06T19:17:16.439Z,99008.00
2019-03-06T19:19:47.875Z,99007.00
2019-03-06T19:22:18.659Z,99015.00
2019-03-06T19:24:49.487Z,98999.00
2019-03-06T19:27:20.010Z,98992.00
2019-03-06T19:29:50.400Z,98992.00
2019-03-06T19:32:21.087Z,98985.00
2019-03-06T19:34:51.740Z,98991.00
2019-03-06T19:37:22.372Z,98988.00
2019-03-06T19:39:53.195Z,98990.00
2019-03-06T19:42:23.583Z,98987.00
2019-03-06T19:44:54.134Z,98982.00
2019-03-06T19:47:24.934Z,98994.00
2019-03-06T19:49:55.561Z,98988.00
2019-03-06T19:52:26.000Z,98980.00
2019-03-06T19:54:56.718Z,98986.00
2019-03-06T19:57:27.292Z,98994.00
2019-03-06T19:59:58.220Z,98968.00
2019-03-06T20:02:29.058Z,98968.00
2019-03-06T20:04:59.472Z,98979.00
2019-03-06T20:07:30.479Z,98971.00
2019-03-06T20:10:01.190Z,98969.00
2019-03-06T20:12:31.608Z,98965.00
2019-03-06T20:15:02.074Z,98962.00
2019-03-06T20:17:32.633Z,98958.00
2019-03-06T20:20:03.232Z,98956.00
2019-03-06T20:22:35.646Z,98963.00
2019-03-06T20:25:06.687Z,98955.00
2019-03-06T20:27:38.222Z,98955.00
2019-03-06T20:30:09.806Z,98950.00
2019-03-06T20:32:40.920Z,98948.00
2019-03-06T20:35:11.558Z,98925.00
2019-03-06T20:37:43.688Z,98927.00
2019-03-06T20:40:14.538Z,98931.00
2019-03-06T20:42:44.938Z,98931.00
2019-03-06T20:45:16.703Z,98927.00
2019-03-06T20:47:47.259Z,98920.00
2019-03-06T20:50:18.255Z,98918.00
2019-03-06T20:52:50.361Z,98918.00
2019-03-06T20:55:21.144Z,98924.00
2019-03-06T20:57:51.735Z,98921.00
2019-03-06T21:00:22.786Z,98921.00
2019-03-06T21:02:53.564Z,98914.00
2019-03-06T21:05:27.302Z,98914.00
2019-03-06T21:07:58.122Z,98909.00
2019-03-06T21:10:28.802Z,98908.00
2019-03-06T21:12:59.318Z,98910.00
2019-03-06T21:15:29.793Z,98909.00
2019-03-06T21:18:00.692Z,98901.00
2019-03-06T21:20:34.590Z,98907.00
2019-03-06T21:23:06.474Z,98906.00
2019-03-06T21:25:38.938Z,98900.00
2019-03-06T21:28:10.200Z,98898.00
2019-03-06T21:30:43.156Z,98895.00
2019-03-06T21:33:13.938Z,98886.00
2019-03-06T21:35:44.753Z,98880.00
2019-03-06T21:38:15.773Z,98889.00
2019-03-06T21:40:46.507Z,98887.00
2019-03-06T21:43:17.015Z,98893.00
2019-03-06T21:45:47.329Z,98871.00
2019-03-06T21:48:17.702Z,98868.00
2019-03-06T21:50:48.626Z,98874.00
2019-03-06T21:53:19.216Z,98876.00
2019-03-06T21:55:49.801Z,98858.00
2019-03-06T21:58:20.389Z,98867.00
2019-03-06T22:00:51.075Z,98873.00
2019-03-06T22:03:24.646Z,98862.00
2019-03-06T22:05:54.815Z,98859.00
2019-03-06T22:08:25.150Z,98860.00
2019-03-06T22:10:55.593Z,98863.00
2019-03-06T22:13:26.177Z,98861.00
2019-03-06T22:15:56.718Z,98862.00
2019-03-06T22:18:27.407Z,98852.00
2019-03-06T22:20:58.177Z,98857.00
2019-03-06T22:23:28.550Z,98853.00
2019-03-06T22:25:59.093Z,98854.00
2019-03-06T22:28:29.925Z,98856.00
2019-03-06T22:31:00.700Z,98861.00
2019-03-06T22:33:31.334Z,98853.00
2019-03-06T22:36:01.688Z,98845.00
2019-03-06T22:38:33.957Z,98841.00
2019-03-06T22:41:04.448Z,98840.00
2019-03-06T22:43:34.945Z,98833.00
2019-03-06T22:46:05.387Z,98838.00
2019-03-06T22:48:37.021Z,98834.00
2019-03-06T22:51:07.750Z,98833.00
2019-03-06T22:53:39.005Z,98827.00
2019-03-06T22:56:12.160Z,98832.00
2019-03-06T22:58:42.849Z,98835.00
2019-03-06T23:01:28.751Z,98826.00
2019-03-06T23:04:01.699Z,98821.00
2019-03-06T23:06:32.413Z,98814.00
2019-03-06T23:09:02.725Z,98809.00
2019-03-06T23:11:33.531Z,98814.00
2019-03-06T23:14:05.078Z,98806.00
2019-03-06T23:16:35.379Z,98800.00
2019-03-06T23:19:06.743Z,98800.00
2019-03-06T23:21:37.336Z,98797.00
2019-03-06T23:24:08.948Z,98781.00
2019-03-06T23:26:42.793Z,98784.00
2019-03-06T23:29:11.851Z,98781.00
2019-03-06T23:31:42.618Z,98775.00
2019-03-06T23:34:13.665Z,98794.00
2019-03-06T23:36:44.302Z,98786.00
2019-03-06T23:39:14.762Z,98788.00
2019-03-06T23:41:45.366Z,98781.00
2019-03-06T23:44:19.123Z,98780.00
2019-03-06T23:46:49.858Z,98787.00
2019-03-06T23:49:20.320Z,98778.00
2019-03-06T23:51:57.181Z,98764.00
2019-03-06T23:54:27.877Z,98771.00
2019-03-06T23:57:01.238Z,98769.00
2019-03-06T23:59:31.827Z,98766.00
